Hlavní strana
METAR-TAF:

METAR-TAF

Letiště :

Berlevåg, Norsko

zeměpisná šířka: 70-52N, zeměpisná délka: 029-02E, výška: 1 m

Aktuální stav počasí

Zpráva byla vytvořena před 1 hodinou a 12 minutami, v 21:50 UTC
Jihozápadní vítr 19 kt
Teplota 5°C
Vlhkost vzduchu 75%
Tlak 1005 hPa
Viditelnost 10 km a více
Polojasno ve výšce 3200 ft
Oblačno až skoro zataženo ve výšce 12000 ft

METAR: ENBV 152150Z 23019KT 9999 SCT032 BKN120 05/01 Q1005

Čas: 00:02 (23:02 UTC)

Předpověď počasí

Zpráva byla vytvořena před 6 hodinami a 2 minutami, v 17:00 UTC
Předpověď platná od 15 v 18 UTC do 15 v 22 UTC
Jižní vítr 18 kt
Viditelnost 10 km a více
Skoro jasno ve výšce 2000 ft
Oblačno až skoro zataženo ve výšce 4000 ft

TAF: ENBV 151700Z 1518/1522 19018KT 9999 FEW020 BKN040

Stav a předpovědi počasí z více než 4 000 letišť (zprávy METAR a TAF).

Červené a žluté tečky na mapě představují dostupné meteorologické stanice.

Když kurzor umístíte na tečku, zobrazí se název stanice.

Pak kliknutím zobrazíte stav a předpověď počasí.

Chcete-li změnit mapu, kliknutím na zelené tlačítko se znaménkem +mapu přiblížíte, kliknutím na zelené tlačítko se znaménkem – mapu oddálíte a kliknutím na zelené šipky přejdete na sousední mapy.


METAR-TAF: